Time;durP1;ratioP1;P1;durP2;ratioP2;P2;SDS_P1;SDS_P2;PMS_P1;PMS_P2;Temp;Humidity;BMP_temperature;BMP_pressure;BME280_temperature;BME280_humidity;BME280_pressure;Samples;Min_cycle;Max_cycle;Signal;HPM_P1;HPM_P2
2023/04/17 00:02:09;;;;;;;28.73;17.83;;;;;;;9.13;100.00;102448.16;5045288;28;20490;-63
2023/04/17 00:04:39;;;;;;;27.55;17.67;;;;;;;9.13;100.00;102439.97;5032997;28;20046;-64
2023/04/17 00:07:08;;;;;;;28.48;18.33;;;;;;;9.14;100.00;102438.94;5034826;28;20371;-64
2023/04/17 00:09:36;;;;;;;25.00;17.38;;;;;;;9.14;100.00;102444.38;5042462;28;20103;-64
2023/04/17 00:12:04;;;;;;;30.38;19.02;;;;;;;9.12;100.00;102439.16;5053029;28;20059;-63
2023/04/17 00:14:31;;;;;;;29.58;19.48;;;;;;;9.11;100.00;102445.63;5054083;28;20044;-64
2023/04/17 00:16:59;;;;;;;27.20;17.92;;;;;;;9.11;100.00;102442.09;5038384;28;20053;-64
2023/04/17 00:19:27;;;;;;;25.40;18.42;;;;;;;9.06;100.00;102442.72;5020515;28;20040;-63
2023/04/17 00:21:54;;;;;;;31.35;19.02;;;;;;;8.99;100.00;102455.53;5052007;28;20047;-64
2023/04/17 00:24:22;;;;;;;30.38;19.23;;;;;;;8.93;100.00;102449.09;5044406;28;20077;-64
2023/04/17 00:26:50;;;;;;;27.15;18.45;;;;;;;8.91;100.00;102447.63;5016323;28;20049;-63
2023/04/17 00:29:17;;;;;;;27.40;18.48;;;;;;;8.96;100.00;102454.09;5032992;28;20572;-64
2023/04/17 00:31:45;;;;;;;26.92;19.40;;;;;;;9.01;100.00;102441.72;5031915;28;20042;-63
2023/04/17 00:34:13;;;;;;;30.38;18.38;;;;;;;9.02;100.00;102443.38;5034446;28;20092;-64
2023/04/17 00:36:40;;;;;;;32.40;19.60;;;;;;;9.03;100.00;102445.06;5034207;28;20075;-64
2023/04/17 00:39:08;;;;;;;28.10;18.48;;;;;;;8.95;100.00;102441.56;5032665;28;20044;-64
2023/04/17 00:41:36;;;;;;;26.45;17.67;;;;;;;8.98;100.00;102439.47;5045930;28;20473;-65
2023/04/17 00:44:04;;;;;;;29.63;20.23;;;;;;;8.99;100.00;102436.50;5043829;28;20052;-63
2023/04/17 00:46:32;;;;;;;28.17;18.88;;;;;;;8.93;100.00;102435.50;5000009;28;20045;-63
2023/04/17 00:49:00;;;;;;;26.75;18.48;;;;;;;8.89;100.00;102441.59;5032585;28;20516;-62
2023/04/17 00:51:28;;;;;;;28.10;19.00;;;;;;;8.88;100.00;102429.88;5041338;28;20057;-63
2023/04/17 00:53:55;;;;;;;26.70;17.75;;;;;;;8.88;100.00;102429.88;5042477;28;20097;-62
2023/04/17 00:56:23;;;;;;;25.00;17.00;;;;;;;8.91;100.00;102429.44;5039256;28;20053;-62
2023/04/17 00:58:51;;;;;;;27.30;18.67;;;;;;;8.93;100.00;102427.34;5018598;28;20095;-64
2023/04/17 01:01:18;;;;;;;25.73;18.00;;;;;;;8.94;100.00;102426.28;5041660;28;20398;-63
2023/04/17 01:03:47;;;;;;;27.48;18.60;;;;;;;8.97;100.00;102422.28;5030105;28;20046;-60
2023/04/17 01:06:16;;;;;;;25.50;18.15;;;;;;;8.94;100.00;102423.56;5019772;28;20042;-63
2023/04/17 01:08:44;;;;;;;28.45;17.77;;;;;;;8.96;100.00;102428.78;5032618;28;20104;-64
2023/04/17 01:11:12;;;;;;;26.77;17.73;;;;;;;8.90;100.00;102427.78;4995433;28;20057;-63
2023/04/17 01:13:49;;;;;;;29.10;17.58;;;;;;;8.84;100.00;102423.19;5017857;28;20046;-63
2023/04/17 01:16:18;;;;;;;28.90;17.88;;;;;;;8.83;100.00;102426.97;5018946;28;20094;-62
2023/04/17 01:18:47;;;;;;;22.30;16.25;;;;;;;8.87;100.00;102430.91;5052941;28;20381;-64
2023/04/17 01:21:15;;;;;;;23.58;17.02;;;;;;;8.93;100.00;102427.34;5032721;28;20053;-62
2023/04/17 01:23:47;;;;;;;24.05;17.67;;;;;;;8.87;100.00;102428.19;5023302;28;20478;-64
2023/04/17 01:26:21;;;;;;;24.27;17.85;;;;;;;8.85;100.00;102424.88;5016432;28;20049;-63
2023/04/17 01:28:56;;;;;;;25.63;18.10;;;;;;;8.89;100.00;102430.72;5033379;28;20084;-62
2023/04/17 01:31:25;;;;;;;23.58;16.40;;;;;;;8.86;100.00;102434.69;5020145;28;20087;-65
2023/04/17 01:33:54;;;;;;;24.15;16.80;;;;;;;8.87;100.00;102428.19;5032504;28;20041;-63
2023/04/17 01:36:22;;;;;;;23.85;16.63;;;;;;;8.87;100.00;102428.19;5026957;28;20056;-64
2023/04/17 01:38:49;;;;;;;24.42;16.05;;;;;;;8.82;100.00;102433.44;5040720;28;20048;-63
2023/04/17 01:41:18;;;;;;;23.75;16.75;;;;;;;8.81;100.00;102434.50;5032085;28;20444;-64
2023/04/17 01:43:46;;;;;;;23.92;16.35;;;;;;;8.78;100.00;102437.69;5054654;28;20099;-65
2023/04/17 01:46:14;;;;;;;23.58;16.52;;;;;;;8.77;100.00;102429.72;5055115;28;20081;-64
2023/04/17 01:48:42;;;;;;;25.52;17.70;;;;;;;8.70;100.00;102436.00;5048634;28;20456;-64
2023/04/17 01:51:09;;;;;;;25.17;16.58;;;;;;;8.68;100.00;102432.69;5015457;28;20407;-64
2023/04/17 01:53:39;;;;;;;21.88;16.35;;;;;;;8.65;100.00;102429.56;5046407;28;20053;-64
2023/04/17 01:56:06;;;;;;;20.35;15.10;;;;;;;8.63;100.00;102432.47;5051516;28;20506;-64
2023/04/17 01:58:35;;;;;;;25.58;16.92;;;;;;;8.63;100.00;102437.09;5058426;28;20049;-63
2023/04/17 02:01:03;;;;;;;23.45;15.82;;;;;;;8.65;100.00;102435.81;5031965;28;20128;-64
2023/04/17 02:03:30;;;;;;;22.33;15.63;;;;;;;8.65;100.00;102440.44;5040034;28;20069;-64
2023/04/17 02:05:58;;;;;;;24.13;16.60;;;;;;;8.69;100.00;102438.97;5018085;28;20512;-62
2023/04/17 02:08:26;;;;;;;22.27;16.00;;;;;;;8.64;100.00;102442.31;5051989;28;20417;-62
2023/04/17 02:10:54;;;;;;;23.27;16.42;;;;;;;8.62;100.00;102430.00;5041997;28;20049;-62
2023/04/17 02:13:21;;;;;;;21.95;15.40;;;;;;;8.63;100.00;102431.66;5036594;28;20037;-64
2023/04/17 02:15:49;;;;;;;24.30;17.80;;;;;;;8.64;100.00;102442.31;5054280;28;20040;-64
2023/04/17 02:18:17;;;;;;;23.60;16.05;;;;;;;8.66;100.00;102442.94;5047510;28;20045;-63
2023/04/17 02:20:44;;;;;;;22.63;16.80;;;;;;;8.62;100.00;102438.97;5036535;28;20049;-63
2023/04/17 02:23:12;;;;;;;22.08;16.63;;;;;;;8.63;100.00;102432.47;5034474;28;20179;-64
2023/04/17 02:25:40;;;;;;;22.95;17.15;;;;;;;8.63;100.00;102431.66;5052159;28;20056;-65
2023/04/17 02:28:08;;;;;;;24.48;16.92;;;;;;;8.61;100.00;102439.19;5056273;28;20052;-64
2023/04/17 02:30:36;;;;;;;24.15;17.33;;;;;;;8.61;100.00;102433.75;5054904;28;20143;-64
2023/04/17 02:33:04;;;;;;;27.33;17.88;;;;;;;8.62;100.00;102430.00;5023489;28;20453;-62
2023/04/17 02:35:32;;;;;;;26.83;17.77;;;;;;;8.61;100.00;102439.19;5027413;28;20124;-63
2023/04/17 02:38:00;;;;;;;29.48;19.05;;;;;;;8.59;100.00;102431.28;5035131;28;20051;-64
2023/04/17 02:40:28;;;;;;;25.35;18.15;;;;;;;8.51;100.00;102440.50;5036235;28;20041;-64
2023/04/17 02:43:00;;;;;;;27.23;19.02;;;;;;;8.43;100.00;102440.72;5034801;28;20148;-64
2023/04/17 02:45:29;;;;;;;28.75;19.88;;;;;;;8.42;100.00;102439.06;5041695;28;20045;-64
2023/04/17 02:47:57;;;;;;;28.10;18.63;;;;;;;8.48;100.00;102448.22;5037503;28;20485;-64
2023/04/17 02:50:25;;;;;;;28.58;19.60;;;;;;;8.44;100.00;102446.97;5018082;28;20049;-63
2023/04/17 02:53:04;;;;;;;28.95;19.58;;;;;;;8.43;100.00;102448.88;5034487;28;20056;-63
2023/04/17 02:55:32;;;;;;;28.52;19.52;;;;;;;8.38;100.00;102456.78;5036700;28;20049;-63
2023/04/17 02:58:00;;;;;;;25.75;18.80;;;;;;;8.39;100.00;102453.03;5055761;28;20041;-64
2023/04/17 03:00:28;;;;;;;27.02;19.00;;;;;;;8.33;100.00;102452.00;5055774;28;20052;-64
2023/04/17 03:03:02;;;;;;;26.73;19.10;;;;;;;8.37;100.00;102451.56;5052630;28;20049;-64
2023/04/17 03:05:30;;;;;;;26.55;17.63;;;;;;;8.31;100.00;102453.25;5035210;28;20056;-64
2023/04/17 03:08:00;;;;;;;27.10;19.52;;;;;;;8.33;100.00;102460.16;5019735;28;20079;-64
2023/04/17 03:10:33;;;;;;;27.83;18.95;;;;;;;8.34;100.00;102460.97;5055021;28;20385;-63
2023/04/17 03:13:02;;;;;;;26.88;19.40;;;;;;;8.33;100.00;102453.88;5040440;28;20041;-63
2023/04/17 03:15:32;;;;;;;27.65;20.25;;;;;;;8.36;100.00;102455.34;5016772;28;20121;-64
2023/04/17 03:18:00;;;;;;;27.73;19.38;;;;;;;8.31;100.00;102461.41;5017705;28;20046;-64
2023/04/17 03:20:28;;;;;;;26.60;19.75;;;;;;;8.30;100.00;102457.88;5045798;28;20059;-64
2023/04/17 03:22:55;;;;;;;29.00;19.92;;;;;;;8.26;100.00;102462.03;5056028;28;20464;-65
2023/04/17 03:25:23;;;;;;;27.90;20.05;;;;;;;8.31;100.00;102455.97;5053319;28;20052;-64
2023/04/17 03:27:55;;;;;;;27.50;19.40;;;;;;;8.38;100.00;102455.97;5014719;28;20053;-64
2023/04/17 03:30:30;;;;;;;28.52;20.13;;;;;;;8.38;100.00;102456.78;5026894;28;20059;-64
2023/04/17 03:33:02;;;;;;;28.45;19.23;;;;;;;8.32;100.00;102457.63;5051493;28;20056;-63
2023/04/17 03:35:31;;;;;;;27.92;20.48;;;;;;;8.29;100.00;102458.06;5034645;28;20121;-64
2023/04/17 03:38:01;;;;;;;27.60;20.60;;;;;;;8.35;100.00;102456.41;5034221;28;20053;-64
2023/04/17 03:40:29;;;;;;;29.05;20.48;;;;;;;8.34;100.00;102455.53;5066871;28;20045;-64
2023/04/17 03:42:58;;;;;;;29.98;20.77;;;;;;;8.33;100.00;102449.28;5025572;28;20071;-64
2023/04/17 03:45:26;;;;;;;29.08;21.40;;;;;;;8.38;100.00;102455.97;5053812;28;20059;-63
2023/04/17 03:47:54;;;;;;;30.05;21.08;;;;;;;8.41;100.00;102445.53;5055469;28;20060;-64
2023/04/17 03:50:22;;;;;;;27.73;20.38;;;;;;;8.45;100.00;102451.38;5054104;28;20041;-64
2023/04/17 03:52:55;;;;;;;30.60;21.50;;;;;;;8.34;100.00;102450.09;5034425;28;20049;-64
2023/04/17 03:55:25;;;;;;;31.50;21.15;;;;;;;8.19;100.00;102457.69;5024813;28;20049;-64
2023/04/17 03:57:53;;;;;;;31.33;21.90;;;;;;;8.12;100.00;102452.25;5052369;28;20072;-63
2023/04/17 04:00:23;;;;;;;30.15;20.67;;;;;;;8.14;100.00;102447.44;5033864;28;20069;-64
2023/04/17 04:02:56;;;;;;;31.98;21.42;;;;;;;8.10;100.00;102448.91;5031235;28;20129;-63
2023/04/17 04:05:31;;;;;;;30.05;21.77;;;;;;;8.11;100.00;102456.03;5032338;28;20450;-66
2023/04/17 04:07:59;;;;;;;30.50;21.77;;;;;;;8.20;100.00;102453.91;5009514;28;20060;-63
2023/04/17 04:10:43;;;;;;;30.40;22.00;;;;;;;8.23;100.00;102457.03;5049339;28;20051;-65
2023/04/17 04:13:15;;;;;;;35.95;23.08;;;;;;;8.28;100.00;102461.84;5030272;28;20084;-64
2023/04/17 04:15:48;;;;;;;33.13;22.27;;;;;;;8.26;100.00;102463.94;5033660;28;20574;-65
2023/04/17 04:18:19;;;;;;;35.13;22.13;;;;;;;8.23;100.00;102453.50;5032105;28;20124;-66
2023/04/17 04:20:47;;;;;;;32.08;22.20;;;;;;;8.19;100.00;102452.25;5049157;28;20515;-66
2023/04/17 04:23:23;;;;;;;32.75;23.02;;;;;;;8.18;100.00;102453.28;5023207;28;20054;-63
2023/04/17 04:25:55;;;;;;;34.13;24.35;;;;;;;8.10;100.00;102449.75;5033055;28;20107;-64
2023/04/17 04:28:37;;;;;;;35.45;22.58;;;;;;;7.98;100.00;102459.56;5033406;28;20041;-63
2023/04/17 04:31:08;;;;;;;35.90;23.38;;;;;;;8.01;100.00;102463.75;5041239;28;20053;-64
2023/04/17 04:33:39;;;;;;;35.10;23.25;;;;;;;8.01;100.00;102459.16;5033015;28;20053;-62
2023/04/17 04:36:08;;;;;;;33.38;23.52;;;;;;;8.01;100.00;102456.47;5032642;28;20093;-64
2023/04/17 04:38:36;;;;;;;34.50;24.08;;;;;;;8.03;100.00;102467.94;5032254;28;20072;-64
2023/04/17 04:41:13;;;;;;;32.13;22.17;;;;;;;8.01;100.00;102466.47;5032205;28;20041;-65
2023/04/17 04:43:44;;;;;;;34.05;24.60;;;;;;;8.03;100.00;102470.66;5031061;28;20040;-64
2023/04/17 04:46:12;;;;;;;35.33;24.70;;;;;;;8.03;100.00;102465.22;5052851;28;20090;-63
2023/04/17 04:48:44;;;;;;;37.42;27.52;;;;;;;7.98;100.00;102473.13;5053170;28;20123;-63
2023/04/17 04:51:12;;;;;;;44.03;27.17;;;;;;;7.97;100.00;102459.81;5025883;28;20116;-63
2023/04/17 04:53:41;;;;;;;41.25;29.25;;;;;;;7.87;100.00;102476.50;5025210;28;20050;-62
2023/04/17 04:56:11;;;;;;;40.95;29.38;;;;;;;7.80;100.00;102487.34;5055020;28;20065;-62
2023/04/17 04:58:39;;;;;;;41.25;27.92;;;;;;;7.79;100.00;102477.56;5057698;28;20493;-64
2023/04/17 05:01:07;;;;;;;39.92;27.60;;;;;;;7.84;100.00;102488.63;5032820;28;20073;-62
2023/04/17 05:03:46;;;;;;;40.08;26.88;;;;;;;7.86;100.00;102478.38;5047754;28;20037;-61
2023/04/17 05:06:20;;;;;;;41.53;27.33;;;;;;;7.89;100.00;102485.28;5032658;28;20049;-63
2023/04/17 05:08:53;;;;;;;38.85;27.60;;;;;;;7.88;100.00;102479.00;5030917;28;20049;-64
2023/04/17 05:11:21;;;;;;;42.58;28.05;;;;;;;7.94;100.00;102490.91;5038312;28;20049;-65
2023/04/17 05:13:49;;;;;;;38.97;26.40;;;;;;;7.96;100.00;102493.41;4664932;28;10000057;-65
2023/04/17 05:16:37;;;;;;;42.72;27.55;;;;;;;7.92;100.00;102484.84;5028500;28;20060;-65
2023/04/17 05:19:05;;;;;;;42.15;28.10;;;;;;;7.92;100.00;102484.03;5028830;28;20156;-66
2023/04/17 05:21:49;;;;;;;40.95;27.48;;;;;;;7.89;100.00;102496.13;5013596;28;20048;-67
2023/04/17 05:24:19;;;;;;;42.83;28.23;;;;;;;7.94;100.00;102493.63;5035265;28;20733;-67
2023/04/17 05:26:48;;;;;;;38.40;26.80;;;;;;;7.93;100.00;102500.06;5032325;28;20124;-66
2023/04/17 05:29:17;;;;;;;48.65;28.20;;;;;;;7.90;100.00;102497.78;5032184;28;20057;-67
2023/04/17 05:31:45;;;;;;;45.63;28.10;;;;;;;7.89;100.00;102504.28;5031158;28;20077;-66
2023/04/17 05:34:25;;;;;;;40.83;27.73;;;;;;;7.88;100.00;102508.84;5040550;28;20060;-65
2023/04/17 05:36:54;;;;;;;40.38;27.25;;;;;;;7.88;100.00;102511.56;5008425;28;20501;-65
2023/04/17 05:39:23;;;;;;;42.70;26.58;;;;;;;7.90;100.00;102504.03;5008662;28;20125;-66
2023/04/17 05:41:51;;;;;;;38.83;26.95;;;;;;;7.89;100.00;102504.28;5008663;28;20054;-65
2023/04/17 05:44:18;;;;;;;37.15;26.95;;;;;;;7.94;100.00;102509.03;5028142;28;20061;-65
2023/04/17 05:46:47;;;;;;;35.90;26.27;;;;;;;7.92;100.00;102503.84;5045774;28;20075;-65
2023/04/17 05:49:14;;;;;;;36.35;25.20;;;;;;;7.90;100.00;102503.22;5049237;28;20057;-65
2023/04/17 05:51:42;;;;;;;33.17;23.63;;;;;;;7.95;100.00;102503.44;5031986;28;20041;-65
2023/04/17 05:54:10;;;;;;;33.60;23.90;;;;;;;7.99;100.00;102507.41;5032221;28;20076;-66
2023/04/17 05:56:40;;;;;;;33.13;24.58;;;;;;;8.03;100.00;102503.22;5016274;28;20115;-65
2023/04/17 05:59:08;;;;;;;35.78;24.27;;;;;;;8.03;100.00;102507.81;5029804;28;20060;-65
2023/04/17 06:01:36;;;;;;;36.55;26.02;;;;;;;8.01;100.00;102509.88;5015179;28;20057;-66
2023/04/17 06:04:03;;;;;;;37.83;24.85;;;;;;;8.03;100.00;102511.38;5012189;28;20045;-65
2023/04/17 06:06:31;;;;;;;37.05;24.33;;;;;;;8.03;100.00;102508.66;5012753;28;20042;-67
2023/04/17 06:08:59;;;;;;;32.28;24.05;;;;;;;8.04;100.00;102514.91;5029925;28;20054;-65
2023/04/17 06:11:27;;;;;;;35.53;25.42;;;;;;;8.00;100.00;102519.09;5046554;28;20558;-66
2023/04/17 06:13:55;;;;;;;33.78;23.40;;;;;;;7.98;100.00;102516.56;5033061;28;20164;-65
2023/04/17 06:16:23;;;;;;;36.05;23.45;;;;;;;7.92;100.00;102525.56;5015963;28;20862;-67
2023/04/17 06:18:51;;;;;;;32.45;23.17;;;;;;;7.94;100.00;102522.63;5028643;28;20049;-67
2023/04/17 06:21:18;;;;;;;33.25;24.38;;;;;;;7.96;100.00;102524.13;5049890;28;20079;-65
2023/04/17 06:23:46;;;;;;;30.00;22.70;;;;;;;7.96;100.00;102524.13;5044751;28;20044;-66
2023/04/17 06:26:16;;;;;;;30.65;24.10;;;;;;;7.96;100.00;102528.69;5020495;28;20409;-66
2023/04/17 06:28:44;;;;;;;31.25;24.02;;;;;;;7.95;100.00;102522.44;5044024;28;20508;-66
2023/04/17 06:31:13;;;;;;;29.23;21.90;;;;;;;8.01;100.00;102527.03;5035141;28;20056;-66
2023/04/17 06:33:41;;;;;;;31.33;23.48;;;;;;;8.02;100.00;102527.84;5035703;28;20044;-65
2023/04/17 06:36:09;;;;;;;33.97;25.20;;;;;;;8.00;100.00;102533.50;5025899;28;20501;-65
2023/04/17 06:38:44;;;;;;;33.20;23.55;;;;;;;8.04;100.00;102533.91;5019373;28;20057;-65
2023/04/17 06:41:13;;;;;;;30.50;23.95;;;;;;;8.06;100.00;102534.56;5002384;28;20056;-65
2023/04/17 06:43:41;;;;;;;30.92;23.17;;;;;;;8.06;100.00;102535.38;5034841;28;20047;-66
2023/04/17 06:46:13;;;;;;;34.03;22.83;;;;;;;8.11;100.00;102543.72;5035228;28;20080;-65
2023/04/17 06:48:41;;;;;;;32.53;23.85;;;;;;;8.15;100.00;102543.31;5027936;28;20071;-63
2023/04/17 06:51:09;;;;;;;33.47;24.15;;;;;;;8.15;100.00;102548.72;5054328;28;20079;-66
2023/04/17 06:53:37;;;;;;;34.10;25.50;;;;;;;8.11;100.00;102551.88;5054630;28;20037;-65
2023/04/17 06:56:05;;;;;;;30.45;22.08;;;;;;;8.11;100.00;102554.59;5042039;28;20497;-65
2023/04/17 06:58:40;;;;;;;32.47;25.40;;;;;;;8.13;100.00;102557.09;5034465;28;20460;-65
2023/04/17 07:01:09;;;;;;;29.33;23.37;;;;;;;8.10;100.00;102552.94;5041461;28;20095;-65
2023/04/17 07:03:38;;;;;;;36.75;25.88;;;;;;;8.13;100.00;102556.25;5054417;28;20047;-63
2023/04/17 07:06:07;;;;;;;35.80;22.92;;;;;;;8.10;100.00;102561.06;5003781;28;20057;-65
2023/04/17 07:08:35;;;;;;;32.03;23.02;;;;;;;8.10;100.00;102563.78;5033956;28;20452;-65
2023/04/17 07:11:02;;;;;;;33.20;24.40;;;;;;;8.16;100.00;102555.84;5014647;28;20128;-64
2023/04/17 07:13:33;;;;;;;33.40;23.85;;;;;;;8.18;100.00;102565.47;5064802;28;20072;-65
2023/04/17 07:16:02;;;;;;;32.00;24.00;;;;;;;8.21;100.00;102564.19;5030376;28;20147;-65
2023/04/17 07:18:30;;;;;;;37.10;26.23;;;;;;;8.20;100.00;102570.66;5035537;28;20072;-61
2023/04/17 07:20:58;;;;;;;35.47;27.15;;;;;;;8.13;100.00;102577.97;5046199;28;20045;-63
2023/04/17 07:23:25;;;;;;;37.13;27.55;;;;;;;8.12;100.00;102582.56;5041941;28;20113;-62
2023/04/17 07:25:53;;;;;;;38.17;27.98;;;;;;;8.08;100.00;102576.72;5035487;28;20045;-59
2023/04/17 07:28:21;;;;;;;38.22;27.13;;;;;;;8.07;100.00;102575.03;5036078;28;20048;-63
2023/04/17 07:30:48;;;;;;;41.65;26.40;;;;;;;8.10;100.00;102582.78;5035785;28;20043;-64
2023/04/17 07:33:16;;;;;;;34.83;27.05;;;;;;;8.15;100.00;102589.47;5048965;28;20445;-63
2023/04/17 07:35:44;;;;;;;37.15;27.23;;;;;;;8.20;100.00;102587.81;5033509;28;20046;-61
2023/04/17 07:38:11;;;;;;;37.97;26.05;;;;;;;8.19;100.00;102591.53;5035292;28;20128;-62
2023/04/17 07:40:40;;;;;;;39.67;28.33;;;;;;;8.20;100.00;102598.66;5034256;28;20047;-62
2023/04/17 07:43:07;;;;;;;39.10;25.08;;;;;;;8.22;100.00;102588.41;5034675;28;20045;-61
2023/04/17 07:45:35;;;;;;;36.72;25.65;;;;;;;8.27;100.00;102588.66;5034657;28;20061;-63
2023/04/17 07:48:06;;;;;;;31.42;24.38;;;;;;;8.29;100.00;102588.41;5035322;28;20061;-63
2023/04/17 07:50:34;;;;;;;37.95;26.50;;;;;;;8.31;100.00;102591.75;5034865;28;20053;-61
2023/04/17 07:53:01;;;;;;;33.10;23.92;;;;;;;8.27;100.00;102590.50;5034605;28;20125;-65
2023/04/17 07:55:29;;;;;;;37.50;24.35;;;;;;;8.31;100.00;102595.31;5034392;28;20056;-62
2023/04/17 07:58:00;;;;;;;31.98;24.65;;;;;;;8.35;100.00;102597.63;5033171;28;20049;-61
2023/04/17 08:00:31;;;;;;;38.30;24.23;;;;;;;8.35;100.00;102593.03;5033142;28;20041;-62
2023/04/17 08:03:00;;;;;;;36.05;24.90;;;;;;;8.34;100.00;102594.06;5033612;28;20041;-63
2023/04/17 08:05:28;;;;;;;34.03;25.23;;;;;;;8.34;100.00;102607.63;5034614;28;20080;-63
2023/04/17 08:07:56;;;;;;;36.30;24.70;;;;;;;8.36;100.00;102600.13;5036155;28;20148;-63
2023/04/17 08:10:25;;;;;;;33.00;24.70;;;;;;;8.42;100.00;102591.16;5039044;28;20045;-64
2023/04/17 08:12:53;;;;;;;34.85;25.35;;;;;;;8.44;100.00;102597.25;5036994;28;20080;-62
2023/04/17 08:15:20;;;;;;;35.45;25.38;;;;;;;8.41;100.00;102603.06;5036935;28;20037;-62
2023/04/17 08:17:49;;;;;;;37.78;25.80;;;;;;;8.42;100.00;102599.31;5019268;28;20427;-63
2023/04/17 08:20:17;;;;;;;34.20;24.35;;;;;;;8.46;100.00;102600.56;5034819;28;20057;-61
2023/04/17 08:22:45;;;;;;;34.97;24.60;;;;;;;8.46;100.00;102602.44;5034328;28;20049;-64
2023/04/17 08:25:13;;;;;;;34.47;24.95;;;;;;;8.52;100.00;102602.44;5033256;28;20038;-62
2023/04/17 08:27:42;;;;;;;37.63;25.52;;;;;;;8.56;100.00;102591.97;5033819;28;20072;-61
2023/04/17 08:30:11;;;;;;;34.28;25.50;;;;;;;8.58;100.00;102598.03;5016117;28;20136;-63
2023/04/17 08:32:45;;;;;;;34.97;24.27;;;;;;;8.59;100.00;102598.91;5033818;28;20053;-62
2023/04/17 08:35:14;;;;;;;35.97;25.95;;;;;;;8.62;100.00;102593.03;4995637;28;20050;-62
2023/04/17 08:37:45;;;;;;;33.28;23.30;;;;;;;8.64;100.00;102605.34;5012534;28;20049;-62
2023/04/17 08:40:14;;;;;;;36.08;24.58;;;;;;;8.64;100.00;102596.38;5029077;28;20098;-62
2023/04/17 08:42:42;;;;;;;35.00;23.98;;;;;;;8.64;100.00;102591.78;5012828;28;20406;-62
2023/04/17 08:45:12;;;;;;;35.90;25.17;;;;;;;8.69;100.00;102600.13;5041972;28;20049;-64
2023/04/17 08:47:41;;;;;;;35.60;23.65;;;;;;;8.74;100.00;102610.34;5032571;28;20396;-63
2023/04/17 08:50:14;;;;;;;34.10;24.77;;;;;;;8.78;100.00;102602.59;5049454;28;20049;-66
2023/04/17 08:52:45;;;;;;;33.85;24.88;;;;;;;8.80;100.00;102609.50;5046536;28;20057;-64
2023/04/17 08:55:24;;;;;;;30.95;22.90;;;;;;;8.84;100.00;102613.47;5016467;28;20045;-64
2023/04/17 08:58:04;;;;;;;37.95;22.30;;;;;;;8.84;100.00;102597.16;5033516;28;20091;-64
2023/04/17 09:00:34;;;;;;;33.53;21.58;;;;;;;8.88;100.00;102598.41;5034925;28;20064;-65
2023/04/17 09:03:07;;;;;;;30.15;20.92;;;;;;;8.94;100.00;102602.97;5034141;28;20100;-64
2023/04/17 09:05:36;;;;;;;33.90;23.67;;;;;;;9.01;100.00;102604.84;5038130;28;20053;-66
2023/04/17 09:08:21;;;;;;;38.03;24.67;;;;;;;9.03;100.00;102591.88;5058947;28;20055;-65
2023/04/17 09:10:53;;;;;;;33.25;24.38;;;;;;;9.03;100.00;102605.47;5018599;28;20069;-64
2023/04/17 09:13:23;;;;;;;36.95;23.08;;;;;;;9.04;100.00;102607.97;5015403;28;20493;-66
2023/04/17 09:16:12;;;;;;;37.90;24.30;;;;;;;9.06;100.00;102605.06;5015685;28;20053;-65
2023/04/17 09:18:41;;;;;;;35.10;24.08;;;;;;;9.18;100.00;102606.06;5015261;28;20057;-64
2023/04/17 09:21:09;;;;;;;36.92;26.48;;;;;;;9.28;100.00;102595.53;5033091;28;20478;-66
2023/04/17 09:23:55;;;;;;;39.67;26.95;;;;;;;9.34;100.00;102612.91;5031743;28;20057;-65
2023/04/17 09:26:27;;;;;;;39.92;26.90;;;;;;;9.44;100.00;102607.00;5057786;28;20420;-65
2023/04/17 09:29:02;;;;;;;38.13;28.30;;;;;;;9.53;100.00;102611.16;5047543;28;20041;-64
2023/04/17 09:31:31;;;;;;;39.33;28.10;;;;;;;9.61;100.00;102597.28;5038507;28;20055;-65
2023/04/17 09:34:00;;;;;;;34.83;24.33;;;;;;;9.65;100.00;102597.69;5056871;28;20357;-65
2023/04/17 09:36:30;;;;;;;36.03;25.70;;;;;;;9.70;100.00;102595.97;5048614;28;20428;-65
2023/04/17 09:38:59;;;;;;;38.63;26.48;;;;;;;9.77;100.00;102599.50;5018632;28;20111;-65
2023/04/17 09:41:31;;;;;;;33.50;23.92;;;;;;;9.84;100.00;102590.44;5019940;28;20061;-65
2023/04/17 09:44:00;;;;;;;35.70;25.60;;;;;;;9.93;100.00;102602.72;5057236;28;20049;-64
2023/04/17 09:46:34;;;;;;;35.33;25.75;;;;;;;9.87;100.00;102600.91;5059419;28;20103;-61
2023/04/17 09:49:08;;;;;;;37.35;27.52;;;;;;;9.85;100.00;102605.72;5044208;28;20407;-62
2023/04/17 09:51:37;;;;;;;42.45;28.30;;;;;;;9.89;100.00;102599.63;5035756;28;20068;-63
2023/04/17 09:54:08;;;;;;;39.67;27.55;;;;;;;9.91;100.00;102602.13;5049989;28;20520;-64
2023/04/17 09:56:36;;;;;;;40.20;27.70;;;;;;;9.93;100.00;102605.47;5039042;28;20061;-65
2023/04/17 09:59:05;;;;;;;41.75;28.00;;;;;;;9.97;100.00;102606.69;5046512;28;20505;-63
2023/04/17 10:01:34;;;;;;;38.38;28.05;;;;;;;10.04;100.00;102602.03;5036010;28;20069;-63
2023/04/17 10:04:03;;;;;;;40.20;28.33;;;;;;;10.09;100.00;102599.47;5010179;28;20497;-63
2023/04/17 10:06:32;;;;;;;38.53;27.83;;;;;;;10.13;100.00;102595.28;5031473;28;20045;-62
2023/04/17 10:09:00;;;;;;;37.55;27.50;;;;;;;10.16;100.00;102600.25;5018887;28;20068;-61
2023/04/17 10:11:30;;;;;;;42.03;26.98;;;;;;;10.17;100.00;102599.22;5019504;28;20053;-62
2023/04/17 10:14:14;;;;;;;38.58;27.10;;;;;;;10.18;100.00;102598.16;5023026;28;20045;-62
2023/04/17 10:16:42;;;;;;;35.08;24.80;;;;;;;10.26;100.00;102593.50;5038244;28;20068;-63
2023/04/17 10:19:30;;;;;;;35.67;25.35;;;;;;;10.32;100.00;102598.94;5044179;28;20053;-63
2023/04/17 10:22:16;;;;;;;35.13;26.38;;;;;;;10.36;100.00;102593.84;5002578;28;20064;-62
2023/04/17 10:24:46;;;;;;;38.90;26.42;;;;;;;10.39;100.00;102598.84;5042405;28;20044;-63
2023/04/17 10:27:35;;;;;;;35.30;25.27;;;;;;;10.43;100.00;102602.81;5054393;28;20044;-63
2023/04/17 10:30:04;;;;;;;37.60;25.52;;;;;;;10.44;100.00;102601.75;5032345;28;20053;-61
2023/04/17 10:32:33;;;;;;;34.28;26.63;;;;;;;10.50;100.00;102606.31;5036115;28;20042;-62
2023/04/17 10:35:16;;;;;;;34.92;26.48;;;;;;;10.54;100.00;102602.06;5039439;28;20048;-63
2023/04/17 10:37:47;;;;;;;32.03;23.85;;;;;;;10.57;100.00;102596.16;5037904;28;20107;-64
2023/04/17 10:40:21;;;;;;;34.45;24.10;;;;;;;10.61;98.88;102594.66;5018665;28;20053;-61
2023/04/17 10:43:12;;;;;;;32.45;24.15;;;;;;;10.61;97.46;102600.13;5036192;28;20053;-62
2023/04/17 10:46:07;;;;;;;38.15;25.75;;;;;;;10.63;98.49;102598.00;5039157;28;20069;-64
2023/04/17 10:48:51;;;;;;;38.63;25.47;;;;;;;10.73;98.10;102593.94;4689298;28;10001004;-63
2023/04/17 10:51:27;;;;;;;33.40;24.23;;;;;;;10.74;96.27;102590.97;5031995;28;20056;-64
2023/04/17 10:54:04;;;;;;;33.15;23.90;;;;;;;10.88;98.44;102586.22;5030858;28;20052;-65
2023/04/17 10:56:47;;;;;;;35.25;22.98;;;;;;;11.11;97.08;102590.16;5039481;28;20064;-65
2023/04/17 10:59:19;;;;;;;37.42;25.10;;;;;;;11.14;92.75;102589.72;5034732;28;20068;-64
2023/04/17 11:01:48;;;;;;;32.70;24.70;;;;;;;11.07;92.99;102587.88;5012612;28;20516;-63
2023/04/17 11:04:20;;;;;;;34.47;24.05;;;;;;;11.16;94.25;102584.84;5048995;28;20103;-61
2023/04/17 11:06:49;;;;;;;31.85;23.27;;;;;;;11.21;94.76;102576.81;5041715;28;20056;-63
2023/04/17 11:09:19;;;;;;;35.05;25.65;;;;;;;11.18;93.49;102579.97;5030626;28;20053;-64
2023/04/17 11:11:47;;;;;;;32.05;23.02;;;;;;;11.18;90.99;102580.81;5013861;28;20111;-63
2023/04/17 11:14:20;;;;;;;30.45;22.13;;;;;;;11.16;90.73;102576.66;5043086;28;20070;-62
2023/04/17 11:16:50;;;;;;;31.50;22.77;;;;;;;11.22;89.28;102582.03;5051885;28;20051;-63
2023/04/17 11:19:23;;;;;;;33.53;22.65;;;;;;;11.32;89.54;102581.47;5031998;28;20132;-63
2023/04/17 11:22:00;;;;;;;31.50;22.52;;;;;;;11.39;89.66;102575.94;5031167;28;20057;-63
2023/04/17 11:24:32;;;;;;;29.92;21.92;;;;;;;11.47;86.40;102568.28;5040614;28;20401;-63